Flight Track Log - Related Links

Times and Time Zones

All times are in EDT time to prevent confusion due to time zone crossing. See the EJA820 flight status page for this flight to view local times or setup timezone preferences in your user account.

Time Position Orientation Groundspeed Altitude Reporting Facility
EDT Latitude Longitude Course Direction KTS MPH feet Rate Location/Type
Sun 10:01:39 AM 26.7133 -80.2544 331° Northwest 274 315 7,400  Level Miami Center
Sun 10:02:39 AM 26.7692 -80.2886 331° Northwest 268 308 10,100 2,850 Climbing Miami Center
Sun 10:03:39 AM 26.8392 -80.3278 333° Northwest 257 296 13,100 2,800 Climbing Miami Center
Sun 10:04:39 AM 26.8603 -80.4031 287° West 237 273 15,700 2,350 Climbing Miami Center
Sun 10:05:39 AM 26.8922 -80.4575 303° West 252 290 17,800 2,000 Climbing Miami Center
Sun 10:06:39 AM 26.9667 -80.4925 337° Northwest 246 283 19,700 1,750 Climbing Miami Center
Sun 10:07:39 AM 27.0475 -80.5206 343° North 270 311 21,300 1,550 Climbing Miami Center
Sun 10:08:39 AM 27.1322 -80.5489 343° North 299 344 22,800 1,500 Climbing Miami Center
Sun 10:09:39 AM 27.2211 -80.5822 342° North 315 362 24,300 1,500 Climbing Miami Center
Sun 10:10:39 AM 27.3122 -80.6131 343° North 327 376 25,800 1,500 Climbing Miami Center
Sun 10:11:39 AM 27.4033 -80.6464 342° North 333 383 27,300 1,500 Climbing Miami Center
Sun 10:12:39 AM 27.4964 -80.6800 342° North 339 390 28,800 1,550 Climbing Miami Center
Sun 10:13:39 AM 27.5894 -80.7111 343° North 339 390 30,400 1,550 Climbing Miami Center
Sun 10:14:39 AM 27.6825 -80.7447 342° North 339 390 31,900 1,500 Climbing Miami Center
Sun 10:15:39 AM 27.7756 -80.7783 342° North 344 396 33,400 1,500 Climbing Miami Center
Sun 10:16:39 AM 27.8644 -80.8075 344° North 344 396 34,900 1,450 Climbing Miami Center
Sun 10:17:39 AM 27.9553 -80.8386 343° North 344 396 36,300 1,250 Climbing Miami Center
Sun 10:18:39 AM 28.0422 -80.8700 342° North 339 390 37,400 1,100 Climbing Miami Center
Sun 10:19:39 AM 28.1372 -80.9064 341° North 344 396 38,500 1,050 Climbing Miami Center
Sun 10:20:39 AM 28.2261 -80.9378 343° North 344 396 39,500 900 Climbing Miami Center
Sun 10:21:39 AM 28.3128 -80.9692 342° North 339 390 40,300 559 Climbing Miami Center
Sun 10:23:20 AM 28.4619 -81.0294 340° North 350 403 41,000 261 Climbing Jacksonville Center
Sun 10:24:20 AM 28.5564 -81.0633 343° North 350 403 41,000  Level Jacksonville Center
Sun 10:25:20 AM 28.6508 -81.0994 341° North 350 403 41,000  Level Jacksonville Center
Sun 10:26:20 AM 28.7492 -81.1308 344° North 356 410 41,000  Level Jacksonville Center
Sun 10:27:20 AM 28.8539 -81.1525 350° North 367 422 41,000  Level Jacksonville Center
Sun 10:28:20 AM 28.9586 -81.1792 347° North 374 430 41,000  Level Jacksonville Center
Sun 10:29:20 AM 29.0633 -81.2011 350° North 374 430 41,000 50 Level Jacksonville Center
Sun 10:30:20 AM 29.1658 -81.2256 348° North 374 430 41,100  Climbing Jacksonville Center
Sun 10:31:20 AM 29.2786 -81.2261 360° North 380 437 41,000 -50 Descending Jacksonville Center
Sun 10:32:21 AM 29.3914 -81.2217 North 390 449 41,000  Level Jacksonville Center
Sun 10:33:20 AM 29.5103 -81.2222 360° North 390 449 41,000  Level Jacksonville Center
Sun 10:34:21 AM 29.6272 -81.2178 North 390 449 41,000  Level Jacksonville Center
Sun 10:35:21 AM 29.7397 -81.2133 North 401 461 41,000  Level Jacksonville Center
Sun 10:36:21 AM 29.8525 -81.2114 North 401 461 41,000  Level Jacksonville Center
Sun 10:37:20 AM 29.9672 -81.2069 North 401 461 41,000  Level Jacksonville Center
Sun 10:38:20 AM 30.0800 -81.2050 North 401 461 41,000  Level Jacksonville Center
Sun 10:39:20 AM 30.1969 -81.2006 North 407 468 41,000  Level Jacksonville Center
Sun 10:40:20 AM 30.3117 -81.2011 360° North 407 468 41,000  Level Jacksonville Center
Sun 10:41:20 AM 30.4306 -81.1964 North 402 463 41,000  Level Jacksonville Center
Sun 10:42:20 AM 30.5433 -81.1944 North 407 468 41,000  Level Jacksonville Center
Sun 10:43:20 AM 30.6561 -81.1925 North 407 468 41,000  Level Jacksonville Center
Sun 10:44:20 AM 30.7708 -81.1881 North 407 468 41,000  Level Jacksonville Center
Sun 10:45:20 AM 30.8897 -81.1883 360° North 407 468 41,000  Level Jacksonville Center
Sun 10:46:20 AM 31.0067 -81.1839 North 407 468 41,000  Level Jacksonville Center
Sun 10:47:20 AM 31.1214 -81.1792 North 407 468 41,000  Level Jacksonville Center
Sun 10:48:21 AM 31.2383 -81.1797 360° North 408 470 41,000  Level Jacksonville Center
Sun 10:49:21 AM 31.3506 -81.1314 20° North 416 479 41,000  Level Jacksonville Center
Sun 10:50:20 AM 31.4497 -81.0589 32° Northeast 440 506 41,000  Level Jacksonville Center
Sun 10:51:21 AM 31.5694 -80.9761 30° Northeast 454 522 41,000  Level Jacksonville Center
Sun 10:52:20 AM 31.6686 -80.9081 30° Northeast 454 522 41,000  Level Jacksonville Center
Sun 10:53:20 AM 31.7864 -80.8225 32° Northeast 454 522 41,000  Level Jacksonville Center
Sun 10:54:21 AM 31.8978 -80.7489 29° Northeast 454 522 41,000  Level Jacksonville Center
Sun 10:55:20 AM 31.9969 -80.6781 31° Northeast 464 534 41,000  Level Jacksonville Center
Sun 10:56:20 AM 32.1186 -80.5942 30° Northeast 464 534 41,000  Level Jacksonville Center
Sun 10:57:21 AM 32.2175 -80.5231 31° Northeast 459 528 41,000  Level Jacksonville Center
Sun 10:58:21 AM 32.3267 -80.4439 31° Northeast 459 528 41,000  Level Jacksonville Center
Sun 10:59:21 AM 32.4378 -80.3647 31° Northeast 465 535 41,000  Level Jacksonville Center
Sun 11:00:21 AM 32.5467 -80.2853 32° Northeast 465 535 41,000  Level Jacksonville Center
Sun 11:01:20 AM 32.6578 -80.2081 30° Northeast 465 535 41,000  Level Jacksonville Center
Sun 11:02:20 AM 32.7792 -80.1178 32° Northeast 465 535 41,000  Level Jacksonville Center
Sun 11:03:21 AM 32.8881 -80.0378 32° Northeast 465 535 41,000  Level Jacksonville Center
Sun 11:04:20 AM 32.9922 -79.9406 38° Northeast 470 541 41,000  Level Jacksonville Center
Sun 11:05:32 AM 33.0942 -79.8428 39° Northeast 470 541 41,000  Level Jacksonville Center
Sun 11:06:32 AM 33.2186 -79.7244 38° Northeast 470 541 41,000  Level Jacksonville Center
Sun 11:07:33 AM 33.3183 -79.6289 39° Northeast 470 541 41,000  Level Jacksonville Center
Sun 11:08:32 AM 33.4181 -79.5308 39° Northeast 465 535 41,000  Level Jacksonville Center
Sun 11:09:32 AM 33.5178 -79.4322 39° Northeast 460 529 41,000  Level Jacksonville Center
Sun 11:10:33 AM 33.6192 -79.3311 40° Northeast 460 529 41,000  Level Jacksonville Center
Sun 11:11:32 AM 33.6983 -79.2531 39° Northeast 460 529 41,000  Level Jacksonville Center
Sun 11:12:33 AM 33.8058 -79.1511 38° Northeast 455 524 41,000  Level Jacksonville Center
Sun 11:14:16 AM 33.9822 -78.9753 40° Northeast 474 545 41,000  Level Washington Center
Sun 11:15:16 AM 34.0808 -78.8764 40° Northeast 462 532 41,000  Level Washington Center
Sun 11:16:16 AM 34.1922 -78.7678 39° Northeast 462 532 41,000  Level Washington Center
Sun 11:17:16 AM 34.2931 -78.6661 40° Northeast 467 537 41,000  Level Washington Center
Sun 11:18:16 AM 34.3936 -78.5642 40° Northeast 467 537 41,000  Level Washington Center
Sun 11:19:16 AM 34.4961 -78.4647 39° Northeast 467 537 41,000  Level Washington Center
Sun 11:20:16 AM 34.5967 -78.3622 40° Northeast 467 537 41,000  Level Washington Center
Sun 11:21:16 AM 34.7014 -78.2547 40° Northeast 472 543 41,000  Level Washington Center
Sun 11:22:16 AM 34.7833 -78.1308 51° Northeast 466 536 41,000  Level Washington Center
Sun 11:23:16 AM 34.8406 -77.9936 63° Northeast 480 552 41,000 -100 Level Washington Center
Sun 11:24:16 AM 34.9078 -77.8561 59° Northeast 480 552 40,800 -750 Descending Washington Center
Sun 11:25:16 AM 34.9750 -77.7186 59° Northeast 480 552 39,500 -1,850 Descending Washington Center
Sun 11:26:16 AM 35.0708 -77.6044 44° Northeast 472 543 37,100 -2,400 Descending Washington Center
Sun 11:27:16 AM 35.1769 -77.5031 38° Northeast 472 543 34,700 -2,450 Descending Washington Center
Sun 11:28:16 AM 35.2828 -77.4011 38° Northeast 477 549 32,200 -2,500 Descending Washington Center
Sun 11:29:16 AM 35.3867 -77.2964 39° Northeast 477 549 29,700 -2,450 Descending Washington Center
Sun 11:30:16 AM 35.4942 -77.1992 36° Northeast 477 549 27,300 -2,150 Descending Washington Center
Sun 11:31:16 AM 35.6058 -77.1275 28° Northeast 446 513 25,400 -1,750 Descending Washington Center
Sun 11:32:16 AM 35.7294 -77.0864 15° North 418 481 23,800 -1,500 Descending Washington Center
Sun 11:33:16 AM 35.8467 -77.0475 15° North 418 481 22,400 -1,400 Descending Washington Center
Sun 11:34:16 AM 35.9600 -77.0086 16° North 423 487 21,000 -1,617 Descending Washington Center
Sun 11:35:11 AM 36.0561 -76.9819 13° North 406 467 19,300 -1,922 Descending Washington Center
Sun 11:35:59 AM 36.1442 -76.9553 14° North 403 464 17,700 -1,292 Descending Washington Center
Sun 11:36:16 AM 36.1756 -76.9378 24° Northeast 400 460 17,900 -1,403 Climbing Washington Center
Sun 11:37:16 AM 36.2719 -76.9086 14° North 377 434 15,900 -2,000 Descending Washington Center
Sun 11:38:16 AM 36.3725 -76.8792 13° North 362 417 13,900 -2,450 Descending Washington Center
Sun 11:39:16 AM 36.4644 -76.8550 12° North 350 403 11,000 -2,000 Descending Washington Center
Sun 11:40:16 AM 36.5522 -76.8278 14° North 332 382 9,900 -1,274 Descending Washington Center
Sun 11:41:09 AM 36.6214 -76.8108 11° North 284 327 8,600 -1,514 Descending Washington Center
Sun 11:42:03 AM 36.6925 -76.7964 North 276 318 7,200 -1,304 Descending Washington Center
Sun 11:43:04 AM 36.7594 -76.7819 10° North 248 285 6,100 -1,131 Descending Washington Center
Sun 11:44:05 AM 36.8347 -76.7675 North 256 295 4,900 -1,033 Descending Washington Center
Sun 11:45:06 AM 36.8994 -76.7450 16° North 246 283 4,000 -425 Descending Washington Center
Sun 11:46:12 AM 36.9625 -76.6992 30° Northeast 221 254 4,000  Level Washington Center

Login

Don't have an account? Register now (free) for customized features, flight alerts, and more!